sensor_id;sensor_type;location;lat;lon;timestamp;temperature;humidity
49711;DHT22;35602;44.534;18.696;2022-07-18T00:03:19;27.20;49.70
49711;DHT22;35602;44.534;18.696;2022-07-18T00:08:20;27.20;49.70
49711;DHT22;35602;44.534;18.696;2022-07-18T00:13:21;27.10;49.80
49711;DHT22;35602;44.534;18.696;2022-07-18T00:18:22;27.20;49.80
49711;DHT22;35602;44.534;18.696;2022-07-18T00:23:23;27.10;49.90
49711;DHT22;35602;44.534;18.696;2022-07-18T00:28:24;27.20;49.80
49711;DHT22;35602;44.534;18.696;2022-07-18T00:33:25;27.10;50.00
49711;DHT22;35602;44.534;18.696;2022-07-18T00:38:25;27.20;50.00
49711;DHT22;35602;44.534;18.696;2022-07-18T00:43:26;27.10;49.80
49711;DHT22;35602;44.534;18.696;2022-07-18T00:48:27;27.10;49.90
49711;DHT22;35602;44.534;18.696;2022-07-18T00:53:28;27.20;50.10
49711;DHT22;35602;44.534;18.696;2022-07-18T00:58:29;27.10;50.50
49711;DHT22;35602;44.534;18.696;2022-07-18T01:03:31;27.20;49.70
49711;DHT22;35602;44.534;18.696;2022-07-18T01:08:32;27.10;50.50
49711;DHT22;35602;44.534;18.696;2022-07-18T01:13:33;27.10;49.80
49711;DHT22;35602;44.534;18.696;2022-07-18T01:18:34;27.10;49.90
49711;DHT22;35602;44.534;18.696;2022-07-18T01:23:35;27.10;49.90
49711;DHT22;35602;44.534;18.696;2022-07-18T01:28:36;27.10;50.50
49711;DHT22;35602;44.534;18.696;2022-07-18T01:33:37;27.10;50.00
49711;DHT22;35602;44.534;18.696;2022-07-18T01:38:38;27.10;49.80
49711;DHT22;35602;44.534;18.696;2022-07-18T01:43:42;27.10;49.70
49711;DHT22;35602;44.534;18.696;2022-07-18T01:48:43;27.10;49.90
49711;DHT22;35602;44.534;18.696;2022-07-18T01:53:54;27.10;49.80
49711;DHT22;35602;44.534;18.696;2022-07-18T01:59:01;27.10;49.80
49711;DHT22;35602;44.534;18.696;2022-07-18T02:04:02;27.10;49.80
49711;DHT22;35602;44.534;18.696;2022-07-18T02:09:04;27.10;50.00
49711;DHT22;35602;44.534;18.696;2022-07-18T02:14:05;27.10;49.90
49711;DHT22;35602;44.534;18.696;2022-07-18T02:19:06;27.10;50.10
49711;DHT22;35602;44.534;18.696;2022-07-18T02:24:07;27.10;50.00
49711;DHT22;35602;44.534;18.696;2022-07-18T02:29:08;27.10;50.00
49711;DHT22;35602;44.534;18.696;2022-07-18T02:34:09;27.10;50.20
49711;DHT22;35602;44.534;18.696;2022-07-18T02:39:13;27.10;49.80
49711;DHT22;35602;44.534;18.696;2022-07-18T02:44:15;27.10;50.10
49711;DHT22;35602;44.534;18.696;2022-07-18T02:49:16;27.10;49.80
49711;DHT22;35602;44.534;18.696;2022-07-18T02:54:30;27.10;49.70
49711;DHT22;35602;44.534;18.696;2022-07-18T02:59:32;27.10;50.00
49711;DHT22;35602;44.534;18.696;2022-07-18T03:04:32;27.10;49.90
49711;DHT22;35602;44.534;18.696;2022-07-18T03:09:33;27.10;49.70
49711;DHT22;35602;44.534;18.696;2022-07-18T03:14:34;27.10;49.70
49711;DHT22;35602;44.534;18.696;2022-07-18T03:19:35;27.00;49.80
49711;DHT22;35602;44.534;18.696;2022-07-18T03:24:36;27.00;49.60
49711;DHT22;35602;44.534;18.696;2022-07-18T03:29:37;27.10;49.50
49711;DHT22;35602;44.534;18.696;2022-07-18T03:34:38;27.00;49.90
49711;DHT22;35602;44.534;18.696;2022-07-18T03:39:38;27.00;49.10
49711;DHT22;35602;44.534;18.696;2022-07-18T03:44:39;27.00;49.30
49711;DHT22;35602;44.534;18.696;2022-07-18T03:49:40;27.10;49.10
49711;DHT22;35602;44.534;18.696;2022-07-18T03:54:41;27.00;49.00
49711;DHT22;35602;44.534;18.696;2022-07-18T03:59:41;27.00;49.00
49711;DHT22;35602;44.534;18.696;2022-07-18T04:04:42;27.00;49.10
49711;DHT22;35602;44.534;18.696;2022-07-18T04:09:43;27.00;48.70
49711;DHT22;35602;44.534;18.696;2022-07-18T04:14:44;27.00;48.60
49711;DHT22;35602;44.534;18.696;2022-07-18T04:19:45;27.00;48.60
49711;DHT22;35602;44.534;18.696;2022-07-18T04:24:45;27.00;48.30
49711;DHT22;35602;44.534;18.696;2022-07-18T04:29:46;27.00;48.50
49711;DHT22;35602;44.534;18.696;2022-07-18T04:34:47;27.00;48.40
49711;DHT22;35602;44.534;18.696;2022-07-18T04:39:48;27.00;48.10
49711;DHT22;35602;44.534;18.696;2022-07-18T04:44:49;26.90;48.30
49711;DHT22;35602;44.534;18.696;2022-07-18T04:49:49;26.90;48.30
49711;DHT22;35602;44.534;18.696;2022-07-18T04:54:50;26.90;47.90
49711;DHT22;35602;44.534;18.696;2022-07-18T04:59:51;26.90;47.90
49711;DHT22;35602;44.534;18.696;2022-07-18T05:04:52;26.90;47.90
49711;DHT22;35602;44.534;18.696;2022-07-18T05:09:53;26.90;47.70
49711;DHT22;35602;44.534;18.696;2022-07-18T05:14:53;26.90;47.40
49711;DHT22;35602;44.534;18.696;2022-07-18T05:19:54;26.90;47.60
49711;DHT22;35602;44.534;18.696;2022-07-18T05:24:55;26.90;47.60
49711;DHT22;35602;44.534;18.696;2022-07-18T05:29:56;26.90;47.70
49711;DHT22;35602;44.534;18.696;2022-07-18T05:34:57;26.90;47.60
49711;DHT22;35602;44.534;18.696;2022-07-18T05:39:57;26.90;47.50
49711;DHT22;35602;44.534;18.696;2022-07-18T05:44:58;26.90;47.50
49711;DHT22;35602;44.534;18.696;2022-07-18T05:49:59;26.90;47.30
49711;DHT22;35602;44.534;18.696;2022-07-18T05:55:00;26.90;47.40
49711;DHT22;35602;44.534;18.696;2022-07-18T06:00:04;26.90;47.40
49711;DHT22;35602;44.534;18.696;2022-07-18T06:05:07;26.90;47.50
49711;DHT22;35602;44.534;18.696;2022-07-18T06:10:09;26.90;47.40
49711;DHT22;35602;44.534;18.696;2022-07-18T06:15:10;26.90;47.30
49711;DHT22;35602;44.534;18.696;2022-07-18T06:20:11;26.90;47.40
49711;DHT22;35602;44.534;18.696;2022-07-18T06:25:12;26.90;47.00
49711;DHT22;35602;44.534;18.696;2022-07-18T06:30:13;26.90;47.30
49711;DHT22;35602;44.534;18.696;2022-07-18T06:35:14;26.90;47.20
49711;DHT22;35602;44.534;18.696;2022-07-18T06:40:15;26.90;47.30
49711;DHT22;35602;44.534;18.696;2022-07-18T06:45:16;26.90;47.20
49711;DHT22;35602;44.534;18.696;2022-07-18T06:50:17;26.90;47.20
49711;DHT22;35602;44.534;18.696;2022-07-18T06:55:18;26.90;47.20
49711;DHT22;35602;44.534;18.696;2022-07-18T07:00:19;26.90;47.10
49711;DHT22;35602;44.534;18.696;2022-07-18T07:05:21;26.90;45.10
49711;DHT22;35602;44.534;18.696;2022-07-18T07:10:21;26.90;45.40
49711;DHT22;35602;44.534;18.696;2022-07-18T07:15:23;26.90;45.40
49711;DHT22;35602;44.534;18.696;2022-07-18T07:20:24;26.90;45.80
49711;DHT22;35602;44.534;18.696;2022-07-18T07:25:26;26.90;41.80
49711;DHT22;35602;44.534;18.696;2022-07-18T07:30:27;26.80;41.10
49711;DHT22;35602;44.534;18.696;2022-07-18T07:35:29;26.80;40.20
49711;DHT22;35602;44.534;18.696;2022-07-18T07:40:30;26.80;40.40
49711;DHT22;35602;44.534;18.696;2022-07-18T07:45:31;26.80;40.60
49711;DHT22;35602;44.534;18.696;2022-07-18T07:50:31;26.80;40.60
49711;DHT22;35602;44.534;18.696;2022-07-18T07:55:32;26.80;40.40
49711;DHT22;35602;44.534;18.696;2022-07-18T08:00:33;26.80;39.30
49711;DHT22;35602;44.534;18.696;2022-07-18T08:05:37;26.80;39.70
49711;DHT22;35602;44.534;18.696;2022-07-18T08:10:38;26.80;39.80
49711;DHT22;35602;44.534;18.696;2022-07-18T08:15:39;26.80;40.00
49711;DHT22;35602;44.534;18.696;2022-07-18T08:20:40;26.80;38.20
49711;DHT22;35602;44.534;18.696;2022-07-18T08:25:44;26.80;36.50
49711;DHT22;35602;44.534;18.696;2022-07-18T08:30:45;26.80;36.90
49711;DHT22;35602;44.534;18.696;2022-07-18T08:35:45;26.90;37.30
49711;DHT22;35602;44.534;18.696;2022-07-18T08:40:52;26.90;37.80
49711;DHT22;35602;44.534;18.696;2022-07-18T08:45:57;26.90;37.70
49711;DHT22;35602;44.534;18.696;2022-07-18T08:51:01;26.90;37.40
49711;DHT22;35602;44.534;18.696;2022-07-18T08:56:02;27.00;37.50
49711;DHT22;35602;44.534;18.696;2022-07-18T09:01:03;27.00;37.80
49711;DHT22;35602;44.534;18.696;2022-07-18T09:06:12;27.00;38.40
49711;DHT22;35602;44.534;18.696;2022-07-18T09:11:13;27.00;38.60
49711;DHT22;35602;44.534;18.696;2022-07-18T09:16:14;27.00;38.60
49711;DHT22;35602;44.534;18.696;2022-07-18T09:21:21;27.10;38.70
49711;DHT22;35602;44.534;18.696;2022-07-18T09:26:41;27.10;38.80
49711;DHT22;35602;44.534;18.696;2022-07-18T09:31:49;27.10;38.90
49711;DHT22;35602;44.534;18.696;2022-07-18T09:36:56;27.10;39.00
49711;DHT22;35602;44.534;18.696;2022-07-18T09:42:17;27.10;38.10
49711;DHT22;35602;44.534;18.696;2022-07-18T09:47:18;27.10;37.50
49711;DHT22;35602;44.534;18.696;2022-07-18T09:52:19;27.10;37.30
49711;DHT22;35602;44.534;18.696;2022-07-18T09:57:24;27.20;37.40
49711;DHT22;35602;44.534;18.696;2022-07-18T10:02:26;27.20;37.60
49711;DHT22;35602;44.534;18.696;2022-07-18T10:07:27;27.20;38.10
49711;DHT22;35602;44.534;18.696;2022-07-18T10:12:28;27.20;38.60
49711;DHT22;35602;44.534;18.696;2022-07-18T10:17:31;27.20;38.80
49711;DHT22;35602;44.534;18.696;2022-07-18T10:22:52;27.20;39.00
49711;DHT22;35602;44.534;18.696;2022-07-18T10:28:07;27.10;39.20
49711;DHT22;35602;44.534;18.696;2022-07-18T10:33:43;27.10;39.30
49711;DHT22;35602;44.534;18.696;2022-07-18T10:40:38;27.10;39.60
49711;DHT22;35602;44.534;18.696;2022-07-18T10:46:02;27.10;39.90
49711;DHT22;35602;44.534;18.696;2022-07-18T10:51:14;27.10;40.10
49711;DHT22;35602;44.534;18.696;2022-07-18T10:56:17;27.10;40.30
49711;DHT22;35602;44.534;18.696;2022-07-18T11:01:19;27.10;40.50
49711;DHT22;35602;44.534;18.696;2022-07-18T11:06:21;27.10;40.60
49711;DHT22;35602;44.534;18.696;2022-07-18T11:11:21;27.10;40.70
49711;DHT22;35602;44.534;18.696;2022-07-18T11:16:25;27.10;41.50
49711;DHT22;35602;44.534;18.696;2022-07-18T11:21:35;27.00;40.90
49711;DHT22;35602;44.534;18.696;2022-07-18T11:26:38;27.00;41.10
49711;DHT22;35602;44.534;18.696;2022-07-18T11:31:56;27.00;41.20
49711;DHT22;35602;44.534;18.696;2022-07-18T11:36:57;27.00;41.30
49711;DHT22;35602;44.534;18.696;2022-07-18T11:42:00;27.00;41.50
49711;DHT22;35602;44.534;18.696;2022-07-18T11:47:07;27.00;41.60
49711;DHT22;35602;44.534;18.696;2022-07-18T11:52:08;27.00;41.60
49711;DHT22;35602;44.534;18.696;2022-07-18T11:57:09;27.00;41.80
49711;DHT22;35602;44.534;18.696;2022-07-18T12:02:10;27.00;41.80
49711;DHT22;35602;44.534;18.696;2022-07-18T12:07:24;27.00;41.90
49711;DHT22;35602;44.534;18.696;2022-07-18T12:12:25;27.00;42.00
49711;DHT22;35602;44.534;18.696;2022-07-18T12:17:27;27.00;42.10
49711;DHT22;35602;44.534;18.696;2022-07-18T12:22:28;27.00;42.20
49711;DHT22;35602;44.534;18.696;2022-07-18T12:27:38;27.00;42.30
49711;DHT22;35602;44.534;18.696;2022-07-18T12:32:58;27.10;42.40
49711;DHT22;35602;44.534;18.696;2022-07-18T12:38:08;27.00;42.40
49711;DHT22;35602;44.534;18.696;2022-07-18T12:43:14;27.00;42.50
49711;DHT22;35602;44.534;18.696;2022-07-18T12:48:15;27.00;42.50
49711;DHT22;35602;44.534;18.696;2022-07-18T12:53:16;27.00;42.60
49711;DHT22;35602;44.534;18.696;2022-07-18T12:58:17;27.00;42.70
49711;DHT22;35602;44.534;18.696;2022-07-18T13:03:18;27.10;42.80
49711;DHT22;35602;44.534;18.696;2022-07-18T13:08:18;27.00;42.80
49711;DHT22;35602;44.534;18.696;2022-07-18T13:13:20;27.10;43.00
49711;DHT22;35602;44.534;18.696;2022-07-18T13:18:21;27.00;43.00
49711;DHT22;35602;44.534;18.696;2022-07-18T13:23:21;27.10;43.00
49711;DHT22;35602;44.534;18.696;2022-07-18T13:28:22;27.10;43.10
49711;DHT22;35602;44.534;18.696;2022-07-18T13:33:23;27.00;43.10
49711;DHT22;35602;44.534;18.696;2022-07-18T13:38:24;27.10;43.20
49711;DHT22;35602;44.534;18.696;2022-07-18T13:43:24;27.10;43.20
49711;DHT22;35602;44.534;18.696;2022-07-18T13:48:25;27.10;43.30
49711;DHT22;35602;44.534;18.696;2022-07-18T13:53:26;27.10;43.30
49711;DHT22;35602;44.534;18.696;2022-07-18T13:58:27;27.10;43.40
49711;DHT22;35602;44.534;18.696;2022-07-18T14:03:28;27.10;43.50
49711;DHT22;35602;44.534;18.696;2022-07-18T14:08:29;27.10;43.50
49711;DHT22;35602;44.534;18.696;2022-07-18T14:13:29;27.10;43.50
49711;DHT22;35602;44.534;18.696;2022-07-18T14:18:30;27.10;43.60
49711;DHT22;35602;44.534;18.696;2022-07-18T14:23:31;27.10;43.60
49711;DHT22;35602;44.534;18.696;2022-07-18T14:28:32;27.10;43.70
49711;DHT22;35602;44.534;18.696;2022-07-18T14:33:34;27.10;43.80
49711;DHT22;35602;44.534;18.696;2022-07-18T14:38:35;27.10;43.70
49711;DHT22;35602;44.534;18.696;2022-07-18T14:43:36;27.10;43.80
49711;DHT22;35602;44.534;18.696;2022-07-18T14:48:36;27.10;43.90
49711;DHT22;35602;44.534;18.696;2022-07-18T14:53:37;27.10;43.90
49711;DHT22;35602;44.534;18.696;2022-07-18T14:58:38;27.10;43.90
49711;DHT22;35602;44.534;18.696;2022-07-18T15:03:39;27.10;43.90
49711;DHT22;35602;44.534;18.696;2022-07-18T15:08:40;27.10;44.00
49711;DHT22;35602;44.534;18.696;2022-07-18T15:13:41;27.10;44.40
49711;DHT22;35602;44.534;18.696;2022-07-18T15:18:41;27.10;44.20
49711;DHT22;35602;44.534;18.696;2022-07-18T15:23:42;27.10;44.10
49711;DHT22;35602;44.534;18.696;2022-07-18T15:28:43;27.10;44.10
49711;DHT22;35602;44.534;18.696;2022-07-18T15:33:44;27.10;44.20
49711;DHT22;35602;44.534;18.696;2022-07-18T15:38:45;27.10;44.20
49711;DHT22;35602;44.534;18.696;2022-07-18T15:43:46;27.10;44.20
49711;DHT22;35602;44.534;18.696;2022-07-18T15:48:48;27.10;44.20
49711;DHT22;35602;44.534;18.696;2022-07-18T15:53:48;27.10;44.80
49711;DHT22;35602;44.534;18.696;2022-07-18T15:58:49;27.10;44.20
49711;DHT22;35602;44.534;18.696;2022-07-18T16:03:50;27.10;44.40
49711;DHT22;35602;44.534;18.696;2022-07-18T16:08:51;27.10;44.40
49711;DHT22;35602;44.534;18.696;2022-07-18T16:13:51;27.10;44.40
49711;DHT22;35602;44.534;18.696;2022-07-18T16:18:52;27.10;44.50
49711;DHT22;35602;44.534;18.696;2022-07-18T16:23:53;27.10;44.40
49711;DHT22;35602;44.534;18.696;2022-07-18T16:28:54;27.10;44.50
49711;DHT22;35602;44.534;18.696;2022-07-18T16:33:55;27.10;44.50
49711;DHT22;35602;44.534;18.696;2022-07-18T16:38:56;27.10;45.00
49711;DHT22;35602;44.534;18.696;2022-07-18T16:44:00;27.10;44.60
49711;DHT22;35602;44.534;18.696;2022-07-18T16:49:01;27.10;44.70
49711;DHT22;35602;44.534;18.696;2022-07-18T16:54:02;27.10;45.30
49711;DHT22;35602;44.534;18.696;2022-07-18T16:59:04;27.10;44.70
49711;DHT22;35602;44.534;18.696;2022-07-18T17:04:05;27.20;44.80
49711;DHT22;35602;44.534;18.696;2022-07-18T17:09:07;27.20;44.80
49711;DHT22;35602;44.534;18.696;2022-07-18T17:14:08;27.10;44.80
49711;DHT22;35602;44.534;18.696;2022-07-18T17:19:09;27.20;44.90
49711;DHT22;35602;44.534;18.696;2022-07-18T17:24:10;27.10;44.90
49711;DHT22;35602;44.534;18.696;2022-07-18T17:29:12;27.20;45.00
49711;DHT22;35602;44.534;18.696;2022-07-18T17:34:13;27.20;45.00
49711;DHT22;35602;44.534;18.696;2022-07-18T17:39:16;27.20;45.10
49711;DHT22;35602;44.534;18.696;2022-07-18T17:44:17;27.20;45.10
49711;DHT22;35602;44.534;18.696;2022-07-18T17:49:21;27.20;45.10
49711;DHT22;35602;44.534;18.696;2022-07-18T17:54:22;27.20;45.20
49711;DHT22;35602;44.534;18.696;2022-07-18T17:59:23;27.20;45.20
49711;DHT22;35602;44.534;18.696;2022-07-18T18:04:26;27.20;45.90
49711;DHT22;35602;44.534;18.696;2022-07-18T18:09:27;27.20;45.20
49711;DHT22;35602;44.534;18.696;2022-07-18T18:14:27;27.20;45.20
49711;DHT22;35602;44.534;18.696;2022-07-18T18:19:30;27.20;45.30
49711;DHT22;35602;44.534;18.696;2022-07-18T18:24:31;27.20;45.20
49711;DHT22;35602;44.534;18.696;2022-07-18T18:29:32;27.20;45.20
49711;DHT22;35602;44.534;18.696;2022-07-18T18:34:33;27.20;45.20
49711;DHT22;35602;44.534;18.696;2022-07-18T18:39:35;27.20;45.20
49711;DHT22;35602;44.534;18.696;2022-07-18T18:44:38;27.20;45.20
49711;DHT22;35602;44.534;18.696;2022-07-18T18:49:39;27.20;45.20
49711;DHT22;35602;44.534;18.696;2022-07-18T18:54:41;27.20;45.20
49711;DHT22;35602;44.534;18.696;2022-07-18T18:59:42;27.20;45.10
49711;DHT22;35602;44.534;18.696;2022-07-18T19:04:43;27.20;45.10
49711;DHT22;35602;44.534;18.696;2022-07-18T19:09:44;27.20;45.10
49711;DHT22;35602;44.534;18.696;2022-07-18T19:14:45;27.20;45.00
49711;DHT22;35602;44.534;18.696;2022-07-18T19:19:45;27.20;45.00
49711;DHT22;35602;44.534;18.696;2022-07-18T19:24:46;27.20;45.60
49711;DHT22;35602;44.534;18.696;2022-07-18T19:29:47;27.20;45.00
49711;DHT22;35602;44.534;18.696;2022-07-18T19:34:48;27.20;45.00
49711;DHT22;35602;44.534;18.696;2022-07-18T19:39:49;27.20;44.90
49711;DHT22;35602;44.534;18.696;2022-07-18T19:44:50;27.20;45.00
49711;DHT22;35602;44.534;18.696;2022-07-18T19:49:51;27.20;44.90
49711;DHT22;35602;44.534;18.696;2022-07-18T19:54:51;27.20;44.90
49711;DHT22;35602;44.534;18.696;2022-07-18T19:59:52;27.20;45.00
49711;DHT22;35602;44.534;18.696;2022-07-18T20:04:53;27.20;44.90
49711;DHT22;35602;44.534;18.696;2022-07-18T20:09:54;27.20;44.90
49711;DHT22;35602;44.534;18.696;2022-07-18T20:14:55;27.20;44.90
49711;DHT22;35602;44.534;18.696;2022-07-18T20:19:55;27.20;44.90
49711;DHT22;35602;44.534;18.696;2022-07-18T20:24:56;27.20;44.90
49711;DHT22;35602;44.534;18.696;2022-07-18T20:29:57;27.20;44.90
49711;DHT22;35602;44.534;18.696;2022-07-18T20:35:01;27.20;44.90
49711;DHT22;35602;44.534;18.696;2022-07-18T20:40:03;27.20;45.00
49711;DHT22;35602;44.534;18.696;2022-07-18T20:45:06;27.10;44.80
49711;DHT22;35602;44.534;18.696;2022-07-18T20:50:08;27.20;44.80
49711;DHT22;35602;44.534;18.696;2022-07-18T20:55:09;27.20;44.80
49711;DHT22;35602;44.534;18.696;2022-07-18T21:00:11;27.20;44.90
49711;DHT22;35602;44.534;18.696;2022-07-18T21:05:12;27.10;44.70
49711;DHT22;35602;44.534;18.696;2022-07-18T21:10:13;27.10;44.70
49711;DHT22;35602;44.534;18.696;2022-07-18T21:15:14;27.10;44.60
49711;DHT22;35602;44.534;18.696;2022-07-18T21:20:19;27.10;44.60
49711;DHT22;35602;44.534;18.696;2022-07-18T21:25:21;27.10;44.60
49711;DHT22;35602;44.534;18.696;2022-07-18T21:30:22;27.10;44.50
49711;DHT22;35602;44.534;18.696;2022-07-18T21:35:23;27.10;44.70
49711;DHT22;35602;44.534;18.696;2022-07-18T21:40:24;27.10;44.70
49711;DHT22;35602;44.534;18.696;2022-07-18T21:45:26;27.10;44.80
49711;DHT22;35602;44.534;18.696;2022-07-18T21:50:27;27.10;44.80
49711;DHT22;35602;44.534;18.696;2022-07-18T21:55:28;27.10;44.90
49711;DHT22;35602;44.534;18.696;2022-07-18T22:00:29;27.10;45.70
49711;DHT22;35602;44.534;18.696;2022-07-18T22:05:30;27.10;45.00
49711;DHT22;35602;44.534;18.696;2022-07-18T22:10:31;27.10;45.10
49711;DHT22;35602;44.534;18.696;2022-07-18T22:15:33;27.10;45.20
49711;DHT22;35602;44.534;18.696;2022-07-18T22:20:34;27.10;45.20
49711;DHT22;35602;44.534;18.696;2022-07-18T22:25:35;27.10;45.20
49711;DHT22;35602;44.534;18.696;2022-07-18T22:30:36;27.10;45.20
49711;DHT22;35602;44.534;18.696;2022-07-18T22:35:37;27.10;45.30
49711;DHT22;35602;44.534;18.696;2022-07-18T22:40:37;27.10;45.40
49711;DHT22;35602;44.534;18.696;2022-07-18T22:45:38;27.10;45.70
49711;DHT22;35602;44.534;18.696;2022-07-18T22:50:40;27.10;45.40
49711;DHT22;35602;44.534;18.696;2022-07-18T22:55:41;27.10;45.50
49711;DHT22;35602;44.534;18.696;2022-07-18T23:00:43;27.10;45.50
49711;DHT22;35602;44.534;18.696;2022-07-18T23:05:44;27.10;45.50
49711;DHT22;35602;44.534;18.696;2022-07-18T23:10:45;27.10;45.50
49711;DHT22;35602;44.534;18.696;2022-07-18T23:15:46;27.10;45.60
49711;DHT22;35602;44.534;18.696;2022-07-18T23:20:47;27.10;45.60
49711;DHT22;35602;44.534;18.696;2022-07-18T23:25:48;27.10;45.70
49711;DHT22;35602;44.534;18.696;2022-07-18T23:30:48;27.10;45.80
49711;DHT22;35602;44.534;18.696;2022-07-18T23:35:49;27.10;45.70
49711;DHT22;35602;44.534;18.696;2022-07-18T23:40:50;27.10;45.90
49711;DHT22;35602;44.534;18.696;2022-07-18T23:45:51;27.10;45.80
49711;DHT22;35602;44.534;18.696;2022-07-18T23:50:52;27.10;45.80
49711;DHT22;35602;44.534;18.696;2022-07-18T23:55:52;27.10;45.90
